sensor_id;sensor_type;location;lat;lon;timestamp;temperature;humidity
49224;DHT22;35050;51.316;5.994;2023-05-16T00:01:57;11.60;99.90
49224;DHT22;35050;51.316;5.994;2023-05-16T00:04:22;11.70;99.90
49224;DHT22;35050;51.316;5.994;2023-05-16T00:06:49;11.80;99.90
49224;DHT22;35050;51.316;5.994;2023-05-16T00:09:14;11.90;99.90
49224;DHT22;35050;51.316;5.994;2023-05-16T00:11:40;11.70;99.90
49224;DHT22;35050;51.316;5.994;2023-05-16T00:14:05;11.50;99.90
49224;DHT22;35050;51.316;5.994;2023-05-16T00:16:32;11.60;99.90
49224;DHT22;35050;51.316;5.994;2023-05-16T00:18:57;11.80;99.90
49224;DHT22;35050;51.316;5.994;2023-05-16T00:21:25;12.00;99.90
49224;DHT22;35050;51.316;5.994;2023-05-16T00:23:51;11.90;99.90
49224;DHT22;35050;51.316;5.994;2023-05-16T00:26:17;12.00;99.90
49224;DHT22;35050;51.316;5.994;2023-05-16T00:28:43;11.80;99.90
49224;DHT22;35050;51.316;5.994;2023-05-16T00:31:08;11.60;99.90
49224;DHT22;35050;51.316;5.994;2023-05-16T00:33:34;11.70;99.90
49224;DHT22;35050;51.316;5.994;2023-05-16T00:36:00;11.80;99.90
49224;DHT22;35050;51.316;5.994;2023-05-16T00:38:25;11.50;99.90
49224;DHT22;35050;51.316;5.994;2023-05-16T00:40:52;11.70;99.90
49224;DHT22;35050;51.316;5.994;2023-05-16T00:43:17;11.60;99.90
49224;DHT22;35050;51.316;5.994;2023-05-16T00:45:43;11.50;99.90
49224;DHT22;35050;51.316;5.994;2023-05-16T00:48:10;11.40;99.90
49224;DHT22;35050;51.316;5.994;2023-05-16T00:50:36;11.50;99.90
49224;DHT22;35050;51.316;5.994;2023-05-16T00:53:02;11.40;99.90
49224;DHT22;35050;51.316;5.994;2023-05-16T00:55:28;11.50;99.90
49224;DHT22;35050;51.316;5.994;2023-05-16T00:57:54;11.60;99.90
49224;DHT22;35050;51.316;5.994;2023-05-16T01:00:20;11.50;99.90
49224;DHT22;35050;51.316;5.994;2023-05-16T01:02:46;11.50;99.90
49224;DHT22;35050;51.316;5.994;2023-05-16T01:05:12;11.40;99.90
49224;DHT22;35050;51.316;5.994;2023-05-16T01:07:38;11.50;99.90
49224;DHT22;35050;51.316;5.994;2023-05-16T01:10:04;11.50;99.90
49224;DHT22;35050;51.316;5.994;2023-05-16T01:15:17;11.60;99.90
49224;DHT22;35050;51.316;5.994;2023-05-16T01:17:59;11.60;99.90
49224;DHT22;35050;51.316;5.994;2023-05-16T01:20:29;11.40;99.90
49224;DHT22;35050;51.316;5.994;2023-05-16T01:26:19;11.90;99.90
49224;DHT22;35050;51.316;5.994;2023-05-16T01:28:47;11.80;99.90
49224;DHT22;35050;51.316;5.994;2023-05-16T01:31:13;11.80;99.90
49224;DHT22;35050;51.316;5.994;2023-05-16T01:33:38;11.80;99.90
49224;DHT22;35050;51.316;5.994;2023-05-16T01:36:29;11.80;99.90
49224;DHT22;35050;51.316;5.994;2023-05-16T01:39:11;11.70;99.90
49224;DHT22;35050;51.316;5.994;2023-05-16T01:42:04;11.80;99.90
49224;DHT22;35050;51.316;5.994;2023-05-16T01:44:55;11.80;99.90
49224;DHT22;35050;51.316;5.994;2023-05-16T01:47:24;11.60;99.90
49224;DHT22;35050;51.316;5.994;2023-05-16T01:52:59;11.60;99.90
49224;DHT22;35050;51.316;5.994;2023-05-16T01:58:02;11.40;99.90
49224;DHT22;35050;51.316;5.994;2023-05-16T02:00:29;11.60;99.90
49224;DHT22;35050;51.316;5.994;2023-05-16T02:02:54;11.60;99.90
49224;DHT22;35050;51.316;5.994;2023-05-16T02:05:20;11.50;99.90
49224;DHT22;35050;51.316;5.994;2023-05-16T02:07:46;11.50;99.90
49224;DHT22;35050;51.316;5.994;2023-05-16T02:10:12;11.50;99.90
49224;DHT22;35050;51.316;5.994;2023-05-16T02:12:38;11.40;99.90
49224;DHT22;35050;51.316;5.994;2023-05-16T02:15:05;11.40;99.90
49224;DHT22;35050;51.316;5.994;2023-05-16T02:17:30;11.40;99.90
49224;DHT22;35050;51.316;5.994;2023-05-16T02:19:56;11.30;99.90
49224;DHT22;35050;51.316;5.994;2023-05-16T02:22:22;11.30;99.90
49224;DHT22;35050;51.316;5.994;2023-05-16T02:24:47;11.30;99.90
49224;DHT22;35050;51.316;5.994;2023-05-16T02:27:13;11.40;99.90
49224;DHT22;35050;51.316;5.994;2023-05-16T02:29:38;11.30;99.90
49224;DHT22;35050;51.316;5.994;2023-05-16T02:32:04;11.20;99.90
49224;DHT22;35050;51.316;5.994;2023-05-16T02:34:30;11.20;99.90
49224;DHT22;35050;51.316;5.994;2023-05-16T02:36:56;11.20;99.90
49224;DHT22;35050;51.316;5.994;2023-05-16T02:39:21;11.10;99.90
49224;DHT22;35050;51.316;5.994;2023-05-16T02:41:47;11.00;99.90
49224;DHT22;35050;51.316;5.994;2023-05-16T02:44:13;11.00;99.90
49224;DHT22;35050;51.316;5.994;2023-05-16T02:46:38;11.00;99.90
49224;DHT22;35050;51.316;5.994;2023-05-16T02:49:04;11.10;99.90
49224;DHT22;35050;51.316;5.994;2023-05-16T02:51:30;11.10;99.90
49224;DHT22;35050;51.316;5.994;2023-05-16T02:53:55;11.10;99.90
49224;DHT22;35050;51.316;5.994;2023-05-16T02:56:21;11.00;99.90
49224;DHT22;35050;51.316;5.994;2023-05-16T02:58:48;11.00;99.90
49224;DHT22;35050;51.316;5.994;2023-05-16T03:01:14;10.80;99.90
49224;DHT22;35050;51.316;5.994;2023-05-16T03:03:40;10.90;99.90
49224;DHT22;35050;51.316;5.994;2023-05-16T03:06:06;10.90;99.90
49224;DHT22;35050;51.316;5.994;2023-05-16T03:08:32;10.80;99.90
49224;DHT22;35050;51.316;5.994;2023-05-16T03:10:58;10.80;99.90
49224;DHT22;35050;51.316;5.994;2023-05-16T03:13:23;10.80;99.90
49224;DHT22;35050;51.316;5.994;2023-05-16T03:15:49;10.80;99.90
49224;DHT22;35050;51.316;5.994;2023-05-16T03:18:15;10.80;99.90
49224;DHT22;35050;51.316;5.994;2023-05-16T03:20:40;10.80;99.90
49224;DHT22;35050;51.316;5.994;2023-05-16T03:23:06;10.80;99.90
49224;DHT22;35050;51.316;5.994;2023-05-16T03:25:36;10.70;99.90
49224;DHT22;35050;51.316;5.994;2023-05-16T03:28:03;10.80;99.90
49224;DHT22;35050;51.316;5.994;2023-05-16T03:30:29;10.70;99.90
49224;DHT22;35050;51.316;5.994;2023-05-16T03:32:55;10.60;99.90
49224;DHT22;35050;51.316;5.994;2023-05-16T03:35:21;10.70;99.90
49224;DHT22;35050;51.316;5.994;2023-05-16T03:37:47;10.50;99.90
49224;DHT22;35050;51.316;5.994;2023-05-16T03:40:12;10.50;99.90
49224;DHT22;35050;51.316;5.994;2023-05-16T03:42:38;10.50;99.90
49224;DHT22;35050;51.316;5.994;2023-05-16T03:45:04;10.60;99.90
49224;DHT22;35050;51.316;5.994;2023-05-16T03:47:31;10.60;99.90
49224;DHT22;35050;51.316;5.994;2023-05-16T03:49:57;10.60;99.90
49224;DHT22;35050;51.316;5.994;2023-05-16T03:52:22;10.60;99.90
49224;DHT22;35050;51.316;5.994;2023-05-16T03:54:48;10.50;99.90
49224;DHT22;35050;51.316;5.994;2023-05-16T03:57:14;10.50;99.90
49224;DHT22;35050;51.316;5.994;2023-05-16T03:59:39;10.50;99.90
49224;DHT22;35050;51.316;5.994;2023-05-16T04:02:05;10.50;99.90
49224;DHT22;35050;51.316;5.994;2023-05-16T04:04:31;10.50;99.90
49224;DHT22;35050;51.316;5.994;2023-05-16T04:06:57;10.50;99.90
49224;DHT22;35050;51.316;5.994;2023-05-16T04:09:22;10.50;99.90
49224;DHT22;35050;51.316;5.994;2023-05-16T04:11:48;10.70;99.90
49224;DHT22;35050;51.316;5.994;2023-05-16T04:14:14;10.50;99.90
49224;DHT22;35050;51.316;5.994;2023-05-16T04:16:40;10.50;99.90
49224;DHT22;35050;51.316;5.994;2023-05-16T04:19:06;10.50;99.90
49224;DHT22;35050;51.316;5.994;2023-05-16T04:21:32;10.60;99.90
49224;DHT22;35050;51.316;5.994;2023-05-16T04:23:58;10.70;99.90
49224;DHT22;35050;51.316;5.994;2023-05-16T04:26:23;10.70;99.90
49224;DHT22;35050;51.316;5.994;2023-05-16T04:28:49;10.70;99.90
49224;DHT22;35050;51.316;5.994;2023-05-16T04:31:15;10.60;99.90
49224;DHT22;35050;51.316;5.994;2023-05-16T04:33:41;10.70;99.90
49224;DHT22;35050;51.316;5.994;2023-05-16T04:36:07;10.70;99.90
49224;DHT22;35050;51.316;5.994;2023-05-16T04:38:33;10.70;99.90
49224;DHT22;35050;51.316;5.994;2023-05-16T04:40:59;10.90;99.90
49224;DHT22;35050;51.316;5.994;2023-05-16T04:43:25;10.70;99.90
49224;DHT22;35050;51.316;5.994;2023-05-16T04:45:51;10.80;99.90
49224;DHT22;35050;51.316;5.994;2023-05-16T04:48:18;10.80;99.90
49224;DHT22;35050;51.316;5.994;2023-05-16T04:50:44;10.80;99.90
49224;DHT22;35050;51.316;5.994;2023-05-16T04:53:09;10.90;99.90
49224;DHT22;35050;51.316;5.994;2023-05-16T04:55:35;10.90;99.90
49224;DHT22;35050;51.316;5.994;2023-05-16T04:58:01;10.80;99.90
49224;DHT22;35050;51.316;5.994;2023-05-16T05:00:27;10.70;99.90
49224;DHT22;35050;51.316;5.994;2023-05-16T05:02:52;11.00;99.90
49224;DHT22;35050;51.316;5.994;2023-05-16T05:05:18;11.00;99.90
49224;DHT22;35050;51.316;5.994;2023-05-16T05:07:44;11.00;99.90
49224;DHT22;35050;51.316;5.994;2023-05-16T05:10:11;10.90;99.90
49224;DHT22;35050;51.316;5.994;2023-05-16T05:12:36;10.90;99.90
49224;DHT22;35050;51.316;5.994;2023-05-16T05:15:03;10.80;99.90
49224;DHT22;35050;51.316;5.994;2023-05-16T05:17:29;11.00;99.90
49224;DHT22;35050;51.316;5.994;2023-05-16T05:19:54;10.90;99.90
49224;DHT22;35050;51.316;5.994;2023-05-16T05:22:20;10.80;99.90
49224;DHT22;35050;51.316;5.994;2023-05-16T05:24:45;11.10;99.90
49224;DHT22;35050;51.316;5.994;2023-05-16T05:27:12;10.90;99.90
49224;DHT22;35050;51.316;5.994;2023-05-16T05:29:39;11.00;99.90
49224;DHT22;35050;51.316;5.994;2023-05-16T05:32:05;11.10;99.90
49224;DHT22;35050;51.316;5.994;2023-05-16T05:34:30;11.00;99.90
49224;DHT22;35050;51.316;5.994;2023-05-16T05:36:56;11.00;99.90
49224;DHT22;35050;51.316;5.994;2023-05-16T05:39:23;11.10;99.90
49224;DHT22;35050;51.316;5.994;2023-05-16T05:41:48;11.20;99.90
49224;DHT22;35050;51.316;5.994;2023-05-16T05:44:14;11.50;99.90
49224;DHT22;35050;51.316;5.994;2023-05-16T05:46:40;11.40;99.90
49224;DHT22;35050;51.316;5.994;2023-05-16T05:49:06;11.30;99.90
49224;DHT22;35050;51.316;5.994;2023-05-16T05:51:31;11.20;99.90
49224;DHT22;35050;51.316;5.994;2023-05-16T05:53:57;11.10;99.90
49224;DHT22;35050;51.316;5.994;2023-05-16T05:56:23;11.20;99.90
49224;DHT22;35050;51.316;5.994;2023-05-16T05:58:50;11.40;99.90
49224;DHT22;35050;51.316;5.994;2023-05-16T06:01:16;11.60;99.90
49224;DHT22;35050;51.316;5.994;2023-05-16T06:03:42;11.70;99.90
49224;DHT22;35050;51.316;5.994;2023-05-16T06:06:08;11.70;99.90
49224;DHT22;35050;51.316;5.994;2023-05-16T06:08:34;11.50;99.90
49224;DHT22;35050;51.316;5.994;2023-05-16T06:11:00;11.30;99.90
49224;DHT22;35050;51.316;5.994;2023-05-16T06:13:26;11.50;99.90
49224;DHT22;35050;51.316;5.994;2023-05-16T06:15:52;11.40;99.90
49224;DHT22;35050;51.316;5.994;2023-05-16T06:18:19;11.50;99.90
49224;DHT22;35050;51.316;5.994;2023-05-16T06:20:45;11.10;99.90
49224;DHT22;35050;51.316;5.994;2023-05-16T06:23:10;11.30;99.90
49224;DHT22;35050;51.316;5.994;2023-05-16T06:25:37;11.50;99.90
49224;DHT22;35050;51.316;5.994;2023-05-16T06:28:02;11.50;99.90
49224;DHT22;35050;51.316;5.994;2023-05-16T06:30:28;11.70;99.90
49224;DHT22;35050;51.316;5.994;2023-05-16T06:32:54;11.70;99.90
49224;DHT22;35050;51.316;5.994;2023-05-16T06:35:19;11.50;99.90
49224;DHT22;35050;51.316;5.994;2023-05-16T06:37:45;11.50;99.90
49224;DHT22;35050;51.316;5.994;2023-05-16T06:40:11;11.60;99.90
49224;DHT22;35050;51.316;5.994;2023-05-16T06:42:37;11.60;99.90
49224;DHT22;35050;51.316;5.994;2023-05-16T06:45:03;11.90;99.90
49224;DHT22;35050;51.316;5.994;2023-05-16T06:47:28;11.90;99.90
49224;DHT22;35050;51.316;5.994;2023-05-16T06:49:54;12.00;99.90
49224;DHT22;35050;51.316;5.994;2023-05-16T06:52:20;12.00;99.90
49224;DHT22;35050;51.316;5.994;2023-05-16T06:54:46;12.30;99.90
49224;DHT22;35050;51.316;5.994;2023-05-16T06:57:11;12.10;99.90
49224;DHT22;35050;51.316;5.994;2023-05-16T06:59:38;12.10;99.90
49224;DHT22;35050;51.316;5.994;2023-05-16T07:02:04;12.40;99.90
49224;DHT22;35050;51.316;5.994;2023-05-16T07:04:30;12.50;99.90
49224;DHT22;35050;51.316;5.994;2023-05-16T07:06:56;12.40;99.90
49224;DHT22;35050;51.316;5.994;2023-05-16T07:09:22;12.50;99.90
49224;DHT22;35050;51.316;5.994;2023-05-16T07:11:47;12.50;99.90
49224;DHT22;35050;51.316;5.994;2023-05-16T07:14:13;12.40;99.90
49224;DHT22;35050;51.316;5.994;2023-05-16T07:16:38;12.50;99.90
49224;DHT22;35050;51.316;5.994;2023-05-16T07:19:04;12.40;99.90
49224;DHT22;35050;51.316;5.994;2023-05-16T07:21:30;12.60;99.90
49224;DHT22;35050;51.316;5.994;2023-05-16T07:23:56;12.70;99.90
49224;DHT22;35050;51.316;5.994;2023-05-16T07:26:21;12.70;99.90
49224;DHT22;35050;51.316;5.994;2023-05-16T07:28:51;12.60;99.90
49224;DHT22;35050;51.316;5.994;2023-05-16T07:31:17;12.60;99.90
49224;DHT22;35050;51.316;5.994;2023-05-16T07:33:44;12.70;99.90
49224;DHT22;35050;51.316;5.994;2023-05-16T07:36:11;12.80;99.90
49224;DHT22;35050;51.316;5.994;2023-05-16T07:38:37;12.60;99.90
49224;DHT22;35050;51.316;5.994;2023-05-16T07:41:03;12.80;99.90
49224;DHT22;35050;51.316;5.994;2023-05-16T07:43:28;12.50;99.90
49224;DHT22;35050;51.316;5.994;2023-05-16T07:45:54;12.70;99.90
49224;DHT22;35050;51.316;5.994;2023-05-16T07:48:20;12.70;99.90
49224;DHT22;35050;51.316;5.994;2023-05-16T07:50:46;12.80;99.90
49224;DHT22;35050;51.316;5.994;2023-05-16T07:53:11;13.40;99.90
49224;DHT22;35050;51.316;5.994;2023-05-16T07:55:37;13.80;99.90
49224;DHT22;35050;51.316;5.994;2023-05-16T07:58:03;14.10;99.90
49224;DHT22;35050;51.316;5.994;2023-05-16T08:00:28;14.40;99.90
49224;DHT22;35050;51.316;5.994;2023-05-16T08:02:54;14.40;99.90
49224;DHT22;35050;51.316;5.994;2023-05-16T08:05:20;14.00;99.90
49224;DHT22;35050;51.316;5.994;2023-05-16T08:07:45;13.60;99.90
49224;DHT22;35050;51.316;5.994;2023-05-16T08:10:11;13.40;99.90
49224;DHT22;35050;51.316;5.994;2023-05-16T08:12:37;13.80;99.90
49224;DHT22;35050;51.316;5.994;2023-05-16T08:15:03;13.90;99.90
49224;DHT22;35050;51.316;5.994;2023-05-16T08:17:29;13.40;99.90
49224;DHT22;35050;51.316;5.994;2023-05-16T08:19:55;13.40;99.90
49224;DHT22;35050;51.316;5.994;2023-05-16T08:22:21;13.40;99.90
49224;DHT22;35050;51.316;5.994;2023-05-16T08:24:46;13.70;99.90
49224;DHT22;35050;51.316;5.994;2023-05-16T08:27:12;14.20;99.90
49224;DHT22;35050;51.316;5.994;2023-05-16T08:29:37;14.00;99.90
49224;DHT22;35050;51.316;5.994;2023-05-16T08:32:04;14.40;99.90
49224;DHT22;35050;51.316;5.994;2023-05-16T08:34:30;14.60;99.90
49224;DHT22;35050;51.316;5.994;2023-05-16T08:36:56;14.90;99.90
49224;DHT22;35050;51.316;5.994;2023-05-16T08:39:22;15.40;99.90
49224;DHT22;35050;51.316;5.994;2023-05-16T08:41:47;15.20;99.90
49224;DHT22;35050;51.316;5.994;2023-05-16T08:44:14;15.20;99.90
49224;DHT22;35050;51.316;5.994;2023-05-16T08:46:52;15.00;99.90
49224;DHT22;35050;51.316;5.994;2023-05-16T08:49:18;15.00;99.90
49224;DHT22;35050;51.316;5.994;2023-05-16T08:51:46;15.00;99.90
49224;DHT22;35050;51.316;5.994;2023-05-16T08:54:13;14.60;99.90
49224;DHT22;35050;51.316;5.994;2023-05-16T08:56:40;14.20;99.90
49224;DHT22;35050;51.316;5.994;2023-05-16T08:59:06;14.30;99.90
49224;DHT22;35050;51.316;5.994;2023-05-16T09:01:32;14.20;99.90
49224;DHT22;35050;51.316;5.994;2023-05-16T09:03:59;14.50;99.90
49224;DHT22;35050;51.316;5.994;2023-05-16T09:06:26;14.90;99.90
49224;DHT22;35050;51.316;5.994;2023-05-16T09:08:52;15.80;99.90
49224;DHT22;35050;51.316;5.994;2023-05-16T09:11:18;16.00;99.90
49224;DHT22;35050;51.316;5.994;2023-05-16T09:13:44;16.20;99.90
49224;DHT22;35050;51.316;5.994;2023-05-16T09:16:17;16.70;99.90
49224;DHT22;35050;51.316;5.994;2023-05-16T09:18:45;16.50;99.00
49224;DHT22;35050;51.316;5.994;2023-05-16T09:21:12;16.60;99.10
49224;DHT22;35050;51.316;5.994;2023-05-16T09:23:38;17.10;99.00
49224;DHT22;35050;51.316;5.994;2023-05-16T09:26:07;16.80;96.70
49224;DHT22;35050;51.316;5.994;2023-05-16T09:28:33;17.30;98.30
49224;DHT22;35050;51.316;5.994;2023-05-16T09:31:01;16.80;96.50
49224;DHT22;35050;51.316;5.994;2023-05-16T09:33:27;16.70;95.50
49224;DHT22;35050;51.316;5.994;2023-05-16T09:35:58;17.40;96.60
49224;DHT22;35050;51.316;5.994;2023-05-16T09:38:25;17.20;96.40
49224;DHT22;35050;51.316;5.994;2023-05-16T09:40:52;17.60;96.40
49224;DHT22;35050;51.316;5.994;2023-05-16T09:43:26;16.90;95.40
49224;DHT22;35050;51.316;5.994;2023-05-16T09:45:52;17.10;95.50
49224;DHT22;35050;51.316;5.994;2023-05-16T09:48:20;17.20;95.30
49224;DHT22;35050;51.316;5.994;2023-05-16T09:50:48;17.50;95.50
49224;DHT22;35050;51.316;5.994;2023-05-16T09:53:28;17.30;95.10
49224;DHT22;35050;51.316;5.994;2023-05-16T09:56:01;18.30;96.10
49224;DHT22;35050;51.316;5.994;2023-05-16T09:58:31;17.80;94.40
49224;DHT22;35050;51.316;5.994;2023-05-16T10:00:58;18.50;95.40
49224;DHT22;35050;51.316;5.994;2023-05-16T10:03:25;18.40;94.50
49224;DHT22;35050;51.316;5.994;2023-05-16T10:05:54;19.30;94.00
49224;DHT22;35050;51.316;5.994;2023-05-16T10:08:31;18.10;92.40
49224;DHT22;35050;51.316;5.994;2023-05-16T10:11:01;18.30;92.80
49224;DHT22;35050;51.316;5.994;2023-05-16T10:13:30;18.30;92.00
49224;DHT22;35050;51.316;5.994;2023-05-16T10:15:57;19.10;92.60
49224;DHT22;35050;51.316;5.994;2023-05-16T10:18:32;19.10;93.10
49224;DHT22;35050;51.316;5.994;2023-05-16T10:21:08;18.80;92.60
49224;DHT22;35050;51.316;5.994;2023-05-16T10:23:37;18.50;92.60
49224;DHT22;35050;51.316;5.994;2023-05-16T10:26:06;18.90;91.90
49224;DHT22;35050;51.316;5.994;2023-05-16T10:28:32;19.80;91.90
49224;DHT22;35050;51.316;5.994;2023-05-16T10:30:59;19.30;89.90
49224;DHT22;35050;51.316;5.994;2023-05-16T10:33:26;19.40;90.70
49224;DHT22;35050;51.316;5.994;2023-05-16T10:35:52;18.60;90.90
49224;DHT22;35050;51.316;5.994;2023-05-16T10:38:18;18.20;91.50
49224;DHT22;35050;51.316;5.994;2023-05-16T10:40:46;18.00;92.30
49224;DHT22;35050;51.316;5.994;2023-05-16T10:43:30;17.80;92.60
49224;DHT22;35050;51.316;5.994;2023-05-16T10:46:08;17.30;93.20
49224;DHT22;35050;51.316;5.994;2023-05-16T10:48:38;17.40;93.70
49224;DHT22;35050;51.316;5.994;2023-05-16T10:54:12;16.90;93.30
49224;DHT22;35050;51.316;5.994;2023-05-16T10:56:39;17.60;94.60
49224;DHT22;35050;51.316;5.994;2023-05-16T10:59:22;18.30;93.10
49224;DHT22;35050;51.316;5.994;2023-05-16T11:01:52;18.50;92.60
49224;DHT22;35050;51.316;5.994;2023-05-16T11:04:18;18.90;91.90
49224;DHT22;35050;51.316;5.994;2023-05-16T11:06:45;18.60;91.80
49224;DHT22;35050;51.316;5.994;2023-05-16T11:11:52;19.40;90.60
49224;DHT22;35050;51.316;5.994;2023-05-16T11:17:07;20.20;90.60
49224;DHT22;35050;51.316;5.994;2023-05-16T11:19:51;20.60;90.90
49224;DHT22;35050;51.316;5.994;2023-05-16T11:22:21;20.40;89.10
49224;DHT22;35050;51.316;5.994;2023-05-16T11:25:05;20.20;82.80
49224;DHT22;35050;51.316;5.994;2023-05-16T11:27:32;20.10;84.50
49224;DHT22;35050;51.316;5.994;2023-05-16T11:30:19;20.10;82.30
49224;DHT22;35050;51.316;5.994;2023-05-16T11:32:46;19.90;83.10
49224;DHT22;35050;51.316;5.994;2023-05-16T11:35:14;19.40;85.20
49224;DHT22;35050;51.316;5.994;2023-05-16T11:37:41;19.40;85.20
49224;DHT22;35050;51.316;5.994;2023-05-16T11:40:09;19.10;86.70
49224;DHT22;35050;51.316;5.994;2023-05-16T11:42:40;19.20;87.20
49224;DHT22;35050;51.316;5.994;2023-05-16T11:45:08;18.30;87.90
49224;DHT22;35050;51.316;5.994;2023-05-16T11:47:41;18.50;88.30
49224;DHT22;35050;51.316;5.994;2023-05-16T11:50:19;17.80;89.80
49224;DHT22;35050;51.316;5.994;2023-05-16T11:52:47;17.80;90.50
49224;DHT22;35050;51.316;5.994;2023-05-16T11:55:15;18.10;90.30
49224;DHT22;35050;51.316;5.994;2023-05-16T11:57:42;18.90;90.20
49224;DHT22;35050;51.316;5.994;2023-05-16T12:00:19;19.40;89.70
49224;DHT22;35050;51.316;5.994;2023-05-16T12:02:47;20.20;90.20
49224;DHT22;35050;51.316;5.994;2023-05-16T12:05:14;20.50;87.60
49224;DHT22;35050;51.316;5.994;2023-05-16T12:07:42;20.10;88.00
49224;DHT22;35050;51.316;5.994;2023-05-16T12:10:10;21.00;87.20
49224;DHT22;35050;51.316;5.994;2023-05-16T12:12:38;19.90;84.10
49224;DHT22;35050;51.316;5.994;2023-05-16T12:15:05;20.10;84.50
49224;DHT22;35050;51.316;5.994;2023-05-16T12:17:36;18.60;85.50
49224;DHT22;35050;51.316;5.994;2023-05-16T12:20:03;18.40;85.10
49224;DHT22;35050;51.316;5.994;2023-05-16T12:22:38;19.60;86.90
49224;DHT22;35050;51.316;5.994;2023-05-16T12:25:36;20.40;82.20
49224;DHT22;35050;51.316;5.994;2023-05-16T12:28:11;20.80;79.20
49224;DHT22;35050;51.316;5.994;2023-05-16T12:30:41;20.20;79.20
49224;DHT22;35050;51.316;5.994;2023-05-16T12:33:09;19.80;79.80
49224;DHT22;35050;51.316;5.994;2023-05-16T12:35:39;19.30;83.00
49224;DHT22;35050;51.316;5.994;2023-05-16T12:38:09;19.90;79.30
49224;DHT22;35050;51.316;5.994;2023-05-16T12:40:36;20.80;81.40
49224;DHT22;35050;51.316;5.994;2023-05-16T12:43:04;19.90;79.60
49224;DHT22;35050;51.316;5.994;2023-05-16T12:45:31;19.80;80.90
49224;DHT22;35050;51.316;5.994;2023-05-16T12:48:03;19.30;80.00
49224;DHT22;35050;51.316;5.994;2023-05-16T12:50:32;19.20;80.30
49224;DHT22;35050;51.316;5.994;2023-05-16T12:52:59;19.70;80.00
49224;DHT22;35050;51.316;5.994;2023-05-16T12:55:25;20.40;79.50
49224;DHT22;35050;51.316;5.994;2023-05-16T12:57:51;20.80;80.10
49224;DHT22;35050;51.316;5.994;2023-05-16T13:00:20;20.50;78.90
49224;DHT22;35050;51.316;5.994;2023-05-16T13:02:46;21.30;81.40
49224;DHT22;35050;51.316;5.994;2023-05-16T13:05:12;21.70;78.80
49224;DHT22;35050;51.316;5.994;2023-05-16T13:07:38;22.30;80.00
49224;DHT22;35050;51.316;5.994;2023-05-16T13:10:09;21.80;76.60
49224;DHT22;35050;51.316;5.994;2023-05-16T13:12:35;21.70;77.50
49224;DHT22;35050;51.316;5.994;2023-05-16T13:15:01;21.60;78.10
49224;DHT22;35050;51.316;5.994;2023-05-16T13:17:27;21.40;76.60
49224;DHT22;35050;51.316;5.994;2023-05-16T13:19:55;20.90;78.70
49224;DHT22;35050;51.316;5.994;2023-05-16T13:22:20;20.50;77.50
49224;DHT22;35050;51.316;5.994;2023-05-16T13:24:46;20.30;79.40
49224;DHT22;35050;51.316;5.994;2023-05-16T13:27:15;20.40;78.70
49224;DHT22;35050;51.316;5.994;2023-05-16T13:29:42;21.30;80.10
49224;DHT22;35050;51.316;5.994;2023-05-16T13:32:08;21.60;77.60
49224;DHT22;35050;51.316;5.994;2023-05-16T13:34:33;21.00;78.20
49224;DHT22;35050;51.316;5.994;2023-05-16T13:36:59;21.10;79.30
49224;DHT22;35050;51.316;5.994;2023-05-16T13:39:25;20.00;77.80
49224;DHT22;35050;51.316;5.994;2023-05-16T13:41:51;20.00;76.90
49224;DHT22;35050;51.316;5.994;2023-05-16T13:44:17;20.20;79.30
49224;DHT22;35050;51.316;5.994;2023-05-16T13:46:43;19.60;79.50
49224;DHT22;35050;51.316;5.994;2023-05-16T13:49:09;19.20;80.90
49224;DHT22;35050;51.316;5.994;2023-05-16T13:51:35;19.20;81.40
49224;DHT22;35050;51.316;5.994;2023-05-16T13:54:00;19.20;83.40
49224;DHT22;35050;51.316;5.994;2023-05-16T13:56:26;19.00;82.00
49224;DHT22;35050;51.316;5.994;2023-05-16T13:58:51;19.20;82.70
49224;DHT22;35050;51.316;5.994;2023-05-16T14:01:17;18.60;83.50
49224;DHT22;35050;51.316;5.994;2023-05-16T14:03:43;19.10;85.80
49224;DHT22;35050;51.316;5.994;2023-05-16T14:06:08;19.20;84.30
49224;DHT22;35050;51.316;5.994;2023-05-16T14:08:34;19.00;85.30
49224;DHT22;35050;51.316;5.994;2023-05-16T14:11:00;19.10;85.70
49224;DHT22;35050;51.316;5.994;2023-05-16T14:13:26;18.90;84.90
49224;DHT22;35050;51.316;5.994;2023-05-16T14:15:51;18.80;84.30
49224;DHT22;35050;51.316;5.994;2023-05-16T14:18:17;18.90;84.40
49224;DHT22;35050;51.316;5.994;2023-05-16T14:20:43;18.70;85.90
49224;DHT22;35050;51.316;5.994;2023-05-16T14:23:08;18.30;85.60
49224;DHT22;35050;51.316;5.994;2023-05-16T14:25:34;17.80;85.40
49224;DHT22;35050;51.316;5.994;2023-05-16T14:28:00;18.00;85.90
49224;DHT22;35050;51.316;5.994;2023-05-16T14:30:26;17.90;84.80
49224;DHT22;35050;51.316;5.994;2023-05-16T14:32:52;18.00;85.80
49224;DHT22;35050;51.316;5.994;2023-05-16T14:35:17;18.00;85.30
49224;DHT22;35050;51.316;5.994;2023-05-16T14:37:43;18.10;85.60
49224;DHT22;35050;51.316;5.994;2023-05-16T14:40:09;17.90;84.70
49224;DHT22;35050;51.316;5.994;2023-05-16T14:42:35;17.90;84.70
49224;DHT22;35050;51.316;5.994;2023-05-16T14:45:00;18.00;86.90
49224;DHT22;35050;51.316;5.994;2023-05-16T14:47:26;18.00;86.40
49224;DHT22;35050;51.316;5.994;2023-05-16T14:49:53;17.80;86.10
49224;DHT22;35050;51.316;5.994;2023-05-16T14:52:19;17.90;86.00
49224;DHT22;35050;51.316;5.994;2023-05-16T14:54:45;17.50;86.10
49224;DHT22;35050;51.316;5.994;2023-05-16T14:57:10;17.80;87.70
49224;DHT22;35050;51.316;5.994;2023-05-16T14:59:36;18.10;88.20
49224;DHT22;35050;51.316;5.994;2023-05-16T15:02:02;17.90;86.50
49224;DHT22;35050;51.316;5.994;2023-05-16T15:04:28;18.00;86.40
49224;DHT22;35050;51.316;5.994;2023-05-16T15:06:54;17.90;87.60
49224;DHT22;35050;51.316;5.994;2023-05-16T15:09:20;17.60;87.20
49224;DHT22;35050;51.316;5.994;2023-05-16T15:11:45;17.70;86.90
49224;DHT22;35050;51.316;5.994;2023-05-16T15:14:11;17.50;88.80
49224;DHT22;35050;51.316;5.994;2023-05-16T15:16:37;17.50;87.90
49224;DHT22;35050;51.316;5.994;2023-05-16T15:19:02;17.70;89.00
49224;DHT22;35050;51.316;5.994;2023-05-16T15:21:28;17.70;88.70
49224;DHT22;35050;51.316;5.994;2023-05-16T15:23:55;17.60;88.30
49224;DHT22;35050;51.316;5.994;2023-05-16T15:26:21;17.50;89.20
49224;DHT22;35050;51.316;5.994;2023-05-16T15:28:47;17.70;89.20
49224;DHT22;35050;51.316;5.994;2023-05-16T15:31:13;17.30;89.60
49224;DHT22;35050;51.316;5.994;2023-05-16T15:33:38;17.40;90.40
49224;DHT22;35050;51.316;5.994;2023-05-16T15:36:04;17.20;89.90
49224;DHT22;35050;51.316;5.994;2023-05-16T15:38:30;17.10;90.30
49224;DHT22;35050;51.316;5.994;2023-05-16T15:40:56;17.40;90.30
49224;DHT22;35050;51.316;5.994;2023-05-16T15:43:22;17.20;90.70
49224;DHT22;35050;51.316;5.994;2023-05-16T15:45:48;17.10;90.50
49224;DHT22;35050;51.316;5.994;2023-05-16T15:48:13;17.20;90.30
49224;DHT22;35050;51.316;5.994;2023-05-16T15:50:39;17.30;90.30